Time;durP1;ratioP1;P1;durP2;ratioP2;P2;SDS_P1;SDS_P2;PMS_P1;PMS_P2;Temp;Humidity;BMP_temperature;BMP_pressure;BME280_temperature;BME280_humidity;BME280_pressure;Samples;Min_cycle;Max_cycle;Signal;HPM_P1;HPM_P2
2023/05/26 00:00:09;;;;;;;28.33;7.60;;;10.10;99.90;;;;;;4934762;29;20219;-64
2023/05/26 00:02:39;;;;;;;31.50;7.90;;;9.90;99.90;;;;;;4922469;29;20215;-65
2023/05/26 00:05:07;;;;;;;35.57;11.83;;;9.80;99.90;;;;;;4934441;29;20306;-58
2023/05/26 00:07:39;;;;;;;52.37;22.23;;;9.80;99.90;;;;;;4939178;29;20223;-58
2023/05/26 00:10:08;;;;;;;32.60;15.67;;;9.70;99.90;;;;;;4933793;29;20210;-58
2023/05/26 00:12:35;;;;;;;42.00;13.93;;;9.70;99.90;;;;;;4941869;29;20702;-58
2023/05/26 00:15:03;;;;;;;35.03;7.60;;;9.80;99.90;;;;;;4917202;29;20188;-58
2023/05/26 00:17:30;;;;;;;39.53;12.90;;;9.70;99.90;;;;;;4919438;29;20224;-62
2023/05/26 00:19:59;;;;;;;69.67;26.20;;;9.60;99.90;;;;;;4933982;29;20687;-59
2023/05/26 00:22:27;;;;;;;100.43;37.33;;;9.60;99.90;;;;;;4917087;29;20208;-59
2023/05/26 00:24:54;;;;;;;39.93;12.80;;;9.60;99.90;;;;;;4933853;29;20199;-58
2023/05/26 00:27:21;;;;;;;106.03;37.83;;;9.50;99.90;;;;;;4917556;29;20204;-58
2023/05/26 00:29:49;;;;;;;61.90;20.67;;;9.40;99.90;;;;;;4942889;29;20203;-66
2023/05/26 00:32:18;;;;;;;89.70;30.20;;;9.40;99.90;;;;;;4918622;29;20593;-67
2023/05/26 00:34:45;;;;;;;250.70;100.73;;;9.30;99.90;;;;;;4933327;29;20207;-66
2023/05/26 00:37:12;;;;;;;38.67;9.87;;;9.30;99.90;;;;;;4933786;29;20200;-66
2023/05/26 00:39:39;;;;;;;68.07;23.00;;;9.20;99.90;;;;;;4934399;29;20549;-66
2023/05/26 00:42:07;;;;;;;124.93;46.77;;;9.30;99.90;;;;;;4935420;29;20207;-67
2023/05/26 00:44:34;;;;;;;90.57;35.40;;;9.20;99.90;;;;;;4934002;29;20202;-67
2023/05/26 00:47:01;;;;;;;72.83;27.83;;;9.50;99.90;;;;;;4933705;29;20691;-58
2023/05/26 00:49:28;;;;;;;54.80;23.03;;;9.10;99.90;;;;;;4914469;29;20216;-58
2023/05/26 00:51:55;;;;;;;88.47;37.83;;;9.10;99.90;;;;;;4934371;29;20623;-58
2023/05/26 00:54:23;;;;;;;75.20;32.50;;;9.10;99.90;;;;;;4935973;29;20282;-66
2023/05/26 00:56:54;;;;;;;67.90;30.43;;;9.10;99.90;;;;;;4915517;29;20200;-66
2023/05/26 00:59:21;;;;;;;96.30;42.37;;;9.00;99.90;;;;;;4933775;29;20582;-66
2023/05/26 01:01:51;;;;;;;60.10;19.57;;;9.00;99.90;;;;;;4933305;29;20204;-66
2023/05/26 01:04:18;;;;;;;87.77;35.50;;;8.90;99.90;;;;;;4932367;29;20616;-67
2023/05/26 01:06:45;;;;;;;101.57;42.33;;;8.90;99.90;;;;;;4931314;29;20882;-68
2023/05/26 01:09:15;;;;;;;76.50;28.73;;;8.90;99.90;;;;;;4927544;29;20254;-66
2023/05/26 01:11:52;;;;;;;69.70;32.00;;;8.90;99.90;;;;;;4932610;29;20207;-67
2023/05/26 01:14:44;;;;;;;41.03;12.83;;;8.90;99.90;;;;;;4933520;29;20199;-66
2023/05/26 01:17:26;;;;;;;54.83;19.60;;;8.80;99.90;;;;;;4929216;29;20208;-66
2023/05/26 01:20:16;;;;;;;57.67;22.93;;;8.80;99.90;;;;;;4920385;29;20256;-57
2023/05/26 01:22:59;;;;;;;59.70;26.10;;;8.80;99.90;;;;;;4901040;29;20291;-58
2023/05/26 01:25:35;;;;;;;40.40;14.50;;;8.70;99.90;;;;;;4914969;29;20234;-58
2023/05/26 01:28:20;;;;;;;94.40;43.60;;;8.70;99.90;;;;;;4916179;29;20211;-57
2023/05/26 01:30:49;;;;;;;42.90;16.37;;;8.60;99.90;;;;;;4915969;29;20700;-57
2023/05/26 01:33:16;;;;;;;53.10;23.17;;;8.60;99.90;;;;;;4933032;29;20680;-57
2023/05/26 01:35:44;;;;;;;37.10;13.10;;;8.60;99.90;;;;;;4916107;29;20732;-65
2023/05/26 01:38:13;;;;;;;54.23;19.30;;;8.60;99.90;;;;;;4933329;29;20227;-66
2023/05/26 01:40:42;;;;;;;39.90;13.60;;;8.60;99.90;;;;;;4915153;29;20631;-67
2023/05/26 01:43:37;;;;;;;32.40;10.30;;;8.60;99.90;;;;;;4916814;29;20196;-58
2023/05/26 01:46:18;;;;;;;31.87;8.00;;;8.50;99.90;;;;;;4920782;29;20192;-67
2023/05/26 01:48:47;;;;;;;29.63;7.87;;;8.50;99.90;;;;;;4911151;29;20274;-59
2023/05/26 01:51:17;;;;;;;28.80;7.13;;;8.50;99.90;;;;;;4915705;29;20219;-58
2023/05/26 01:53:47;;;;;;;23.90;5.90;;;8.50;99.90;;;;;;4915237;29;20195;-59
2023/05/26 01:56:15;;;;;;;29.70;6.23;;;8.40;99.90;;;;;;4913872;29;20653;-59
2023/05/26 01:58:45;;;;;;;27.20;6.40;;;8.40;99.90;;;;;;4910496;29;20199;-67
2023/05/26 02:01:12;;;;;;;28.23;6.30;;;8.40;99.90;;;;;;4921521;29;20199;-70
2023/05/26 02:03:42;;;;;;;47.63;16.80;;;8.30;99.90;;;;;;4917334;29;20243;-65
2023/05/26 02:06:09;;;;;;;35.00;10.50;;;8.30;99.90;;;;;;4908855;29;20588;-65
2023/05/26 02:08:37;;;;;;;23.40;6.80;;;8.20;99.90;;;;;;4912319;29;20686;-65
2023/05/26 02:11:04;;;;;;;31.37;7.50;;;8.20;99.90;;;;;;4911090;29;20631;-65
2023/05/26 02:13:32;;;;;;;24.83;6.07;;;8.20;99.90;;;;;;4911699;29;20228;-66
2023/05/26 02:15:59;;;;;;;19.07;5.77;;;8.20;99.90;;;;;;4912739;29;20271;-58
2023/05/26 02:18:26;;;;;;;27.27;7.67;;;8.10;99.90;;;;;;4911776;29;20207;-60
2023/05/26 02:20:53;;;;;;;22.23;6.70;;;8.10;99.90;;;;;;4911548;29;20242;-67
2023/05/26 02:23:20;;;;;;;26.60;5.27;;;8.20;99.90;;;;;;4912261;29;20207;-67
2023/05/26 02:25:47;;;;;;;25.93;6.03;;;8.00;99.90;;;;;;4911651;29;20556;-66
2023/05/26 02:28:14;;;;;;;20.60;6.00;;;8.00;99.90;;;;;;4912025;29;20200;-65
2023/05/26 02:30:41;;;;;;;24.30;5.53;;;8.00;99.90;;;;;;4907281;29;20554;-66
2023/05/26 02:33:09;;;;;;;17.40;5.20;;;8.00;99.90;;;;;;4909535;29;20714;-66
2023/05/26 02:35:36;;;;;;;29.00;5.83;;;7.90;99.90;;;;;;4915816;29;20196;-58
2023/05/26 02:38:05;;;;;;;27.83;5.50;;;7.90;99.90;;;;;;4913744;29;20201;-65
2023/05/26 02:40:32;;;;;;;24.07;5.73;;;7.90;99.90;;;;;;4913329;29;20192;-60
2023/05/26 02:42:59;;;;;;;25.07;5.83;;;7.90;99.90;;;;;;4911780;29;20220;-58
2023/05/26 02:45:26;;;;;;;28.13;6.63;;;7.90;99.90;;;;;;4912139;29;20215;-60
2023/05/26 02:47:53;;;;;;;28.97;6.77;;;7.80;99.90;;;;;;4912075;29;20719;-65
2023/05/26 02:50:22;;;;;;;31.67;6.03;;;7.80;99.90;;;;;;4914006;29;20261;-66
2023/05/26 02:52:49;;;;;;;25.47;5.87;;;7.80;99.90;;;;;;4912107;29;20275;-66
2023/05/26 02:55:16;;;;;;;26.67;6.20;;;7.80;99.90;;;;;;4912362;29;20200;-66
2023/05/26 02:57:43;;;;;;;25.67;5.63;;;7.80;99.90;;;;;;4911511;29;20197;-58
2023/05/26 03:00:11;;;;;;;20.13;5.77;;;7.80;99.90;;;;;;4909668;29;20204;-58
2023/05/26 03:02:38;;;;;;;23.37;5.67;;;7.80;99.90;;;;;;4896378;29;20208;-59
2023/05/26 03:05:08;;;;;;;27.60;6.17;;;7.80;99.90;;;;;;4920581;29;20238;-63
2023/05/26 03:07:35;;;;;;;24.30;6.50;;;7.70;99.90;;;;;;4929070;29;20345;-59
2023/05/26 03:10:03;;;;;;;22.47;6.37;;;7.70;99.90;;;;;;4926683;29;20211;-59
2023/05/26 03:12:30;;;;;;;24.53;6.90;;;7.70;99.90;;;;;;4931397;29;20208;-58
2023/05/26 03:14:57;;;;;;;31.77;6.97;;;7.80;99.90;;;;;;4930582;29;20624;-59
2023/05/26 03:17:27;;;;;;;23.80;6.57;;;7.70;99.90;;;;;;4915268;29;20191;-64
2023/05/26 03:19:55;;;;;;;30.03;7.80;;;7.70;99.90;;;;;;4921180;29;20196;-59
2023/05/26 03:22:23;;;;;;;22.33;5.63;;;7.80;99.90;;;;;;4928590;29;20697;-59
2023/05/26 03:25:10;;;;;;;26.00;6.57;;;7.80;99.90;;;;;;4926447;29;20278;-66
2023/05/26 03:27:43;;;;;;;23.50;6.77;;;7.70;99.90;;;;;;4913715;29;20605;-66
2023/05/26 03:30:10;;;;;;;26.50;7.03;;;7.80;99.90;;;;;;4918175;29;20203;-67
2023/05/26 03:32:41;;;;;;;27.13;6.27;;;7.80;99.90;;;;;;4917515;29;20215;-68
2023/05/26 03:35:08;;;;;;;33.00;7.20;;;7.80;99.90;;;;;;4937237;29;20683;-68
2023/05/26 03:37:36;;;;;;;30.47;6.87;;;7.80;99.90;;;;;;4933633;29;20195;-68
2023/05/26 03:40:05;;;;;;;22.80;5.90;;;7.90;99.90;;;;;;4901713;29;20291;-69
2023/05/26 03:42:34;;;;;;;29.63;9.07;;;7.90;99.90;;;;;;4939433;29;20195;-69
2023/05/26 03:45:02;;;;;;;26.53;6.83;;;7.90;99.90;;;;;;4934858;29;20577;-68
2023/05/26 03:47:29;;;;;;;23.80;6.60;;;7.90;99.90;;;;;;4923499;29;20702;-65
2023/05/26 03:49:56;;;;;;;26.07;6.63;;;8.30;99.90;;;;;;4927694;29;20199;-65
2023/05/26 03:52:26;;;;;;;36.70;7.87;;;8.80;99.90;;;;;;4930669;29;20215;-59
2023/05/26 03:54:53;;;;;;;28.33;6.60;;;9.20;99.90;;;;;;4942221;29;20214;-64
2023/05/26 03:57:20;;;;;;;27.07;8.57;;;9.50;99.90;;;;;;4927429;29;20215;-65
2023/05/26 03:59:47;;;;;;;28.23;9.07;;;9.80;99.90;;;;;;4920774;29;20231;-65
2023/05/26 04:02:15;;;;;;;24.97;7.90;;;10.10;99.90;;;;;;4911982;29;20547;-65
2023/05/26 04:04:42;;;;;;;17.60;6.97;;;10.20;99.90;;;;;;4918441;29;20307;-65
2023/05/26 04:07:09;;;;;;;25.03;7.63;;;10.40;99.90;;;;;;4920090;29;20231;-66
2023/05/26 04:09:36;;;;;;;27.83;8.90;;;10.60;99.90;;;;;;4922125;29;20207;-65
2023/05/26 04:12:04;;;;;;;29.07;10.50;;;10.80;99.90;;;;;;4914866;29;20224;-66
2023/05/26 04:14:31;;;;;;;30.43;12.47;;;11.00;99.90;;;;;;4919342;29;20211;-66
2023/05/26 04:16:58;;;;;;;35.70;10.70;;;10.90;99.90;;;;;;4915970;29;20206;-67
2023/05/26 04:19:26;;;;;;;31.27;10.67;;;11.00;99.90;;;;;;4912242;29;20200;-67
2023/05/26 04:21:54;;;;;;;26.30;8.47;;;11.20;99.90;;;;;;4919088;29;20211;-68
2023/05/26 04:24:21;;;;;;;24.70;8.43;;;11.40;99.90;;;;;;4926365;29;20248;-67
2023/05/26 04:26:48;;;;;;;25.63;8.57;;;11.60;99.90;;;;;;4916809;29;20261;-66
2023/05/26 04:29:32;;;;;;;24.57;7.60;;;12.00;99.90;;;;;;4912882;29;20214;-67
2023/05/26 04:32:08;;;;;;;23.63;6.83;;;12.20;99.90;;;;;;4928591;29;20216;-67
2023/05/26 04:34:58;;;;;;;16.80;6.23;;;12.50;99.90;;;;;;4916110;29;20209;-67
2023/05/26 04:37:35;;;;;;;22.80;6.37;;;12.40;99.90;;;;;;4915535;29;20202;-67
2023/05/26 04:40:05;;;;;;;29.20;6.60;;;12.60;99.90;;;;;;4914238;29;20568;-68
2023/05/26 04:42:34;;;;;;;23.07;6.60;;;12.60;99.90;;;;;;4916983;29;20212;-68
2023/05/26 04:45:03;;;;;;;17.37;6.37;;;12.80;99.90;;;;;;4912160;29;20227;-66
2023/05/26 04:47:34;;;;;;;22.97;6.87;;;13.00;99.90;;;;;;4897060;29;20204;-67
2023/05/26 04:50:03;;;;;;;21.30;6.27;;;13.50;99.90;;;;;;4917229;29;20571;-67
2023/05/26 04:52:30;;;;;;;23.50;5.90;;;13.60;99.90;;;;;;4912714;29;20216;-66
2023/05/26 04:54:57;;;;;;;23.45;6.45;;;13.20;99.90;;;;;;4912126;29;20350;-68
2023/05/26 04:57:24;;;;;;;22.70;6.37;;;13.00;99.90;;;;;;4911083;29;20204;-67
2023/05/26 04:59:54;;;;;;;18.97;7.00;;;12.90;99.90;;;;;;4913942;29;20733;-67
2023/05/26 05:02:21;;;;;;;26.60;5.93;;;13.50;99.90;;;;;;4911963;29;20214;-66
2023/05/26 05:04:55;;;;;;;18.60;6.25;;;13.50;99.90;;;;;;4922211;29;20354;-67
2023/05/26 05:07:22;;;;;;;19.73;7.47;;;13.80;99.90;;;;;;4916692;29;20819;-67
2023/05/26 05:09:50;;;;;;;24.90;6.05;;;14.20;99.90;;;;;;4916135;29;20207;-67
2023/05/26 05:12:17;;;;;;;20.02;6.13;;;14.50;99.90;;;;;;4915455;29;20222;-68
2023/05/26 05:14:45;;;;;;;17.52;6.38;;;14.70;99.90;;;;;;4914753;29;20295;-67
2023/05/26 05:17:12;;;;;;;21.98;5.95;;;15.10;99.90;;;;;;4916318;29;20629;-70
2023/05/26 05:19:39;;;;;;;20.25;5.85;;;15.50;99.90;;;;;;4932783;29;20214;-69
2023/05/26 05:22:06;;;;;;;26.10;7.07;;;15.80;99.90;;;;;;4914950;29;20217;-66
2023/05/26 05:24:33;;;;;;;26.52;6.32;;;15.00;99.90;;;;;;4900949;29;20600;-66
2023/05/26 05:27:01;;;;;;;26.88;6.78;;;15.10;99.90;;;;;;4921180;29;20242;-65
2023/05/26 05:29:28;;;;;;;23.83;6.53;;;15.60;99.90;;;;;;4917790;29;20203;-66
2023/05/26 05:31:58;;;;;;;19.73;6.13;;;15.60;99.90;;;;;;4931723;29;20208;-65
2023/05/26 05:34:29;;;;;;;27.85;6.95;;;15.00;99.90;;;;;;4920375;29;20215;-67
2023/05/26 05:36:57;;;;;;;20.38;6.00;;;15.20;99.90;;;;;;4927177;29;20199;-64
2023/05/26 05:39:24;;;;;;;23.05;6.78;;;15.50;99.90;;;;;;4914914;29;20207;-65
2023/05/26 05:41:51;;;;;;;26.90;7.05;;;15.40;99.90;;;;;;4917553;29;20199;-64
2023/05/26 05:44:18;;;;;;;23.17;6.25;;;15.60;99.90;;;;;;4930292;29;20757;-63
2023/05/26 05:46:47;;;;;;;20.10;5.72;;;16.70;99.90;;;;;;4928887;29;20669;-63
2023/05/26 05:49:23;;;;;;;27.23;5.85;;;17.60;99.90;;;;;;4927021;29;20199;-64
2023/05/26 05:51:50;;;;;;;23.90;6.13;;;16.90;99.90;;;;;;4930265;29;20200;-65
2023/05/26 05:54:17;;;;;;;23.33;6.30;;;17.10;99.90;;;;;;4926752;29;20318;-67
2023/05/26 05:56:45;;;;;;;29.52;6.20;;;16.30;99.90;;;;;;4907930;29;20188;-67
2023/05/26 05:59:15;;;;;;;19.48;6.63;;;16.20;99.90;;;;;;4916133;29;20290;-67
2023/05/26 06:01:42;;;;;;;19.85;5.18;;;16.80;99.90;;;;;;4919699;29;20192;-68
2023/05/26 06:04:09;;;;;;;26.30;6.03;;;17.80;99.90;;;;;;4928699;29;20239;-67
2023/05/26 06:06:36;;;;;;;20.88;6.03;;;18.20;99.90;;;;;;4928944;29;20212;-68
2023/05/26 06:09:04;;;;;;;26.55;6.40;;;18.60;99.90;;;;;;4896555;29;20238;-67
2023/05/26 06:11:31;;;;;;;30.30;5.80;;;17.90;99.90;;;;;;4904481;29;20257;-68
2023/05/26 06:13:58;;;;;;;23.95;6.35;;;18.00;99.90;;;;;;4911745;29;20594;-67
2023/05/26 06:16:25;;;;;;;20.80;6.18;;;18.50;99.90;;;;;;4925187;29;20687;-67
2023/05/26 06:18:52;;;;;;;28.17;6.25;;;18.80;99.90;;;;;;4928496;29;20226;-67
2023/05/26 06:21:20;;;;;;;24.75;6.03;;;17.90;99.90;;;;;;4907372;29;20282;-67
2023/05/26 06:23:52;;;;;;;24.30;6.53;;;16.20;99.90;;;;;;4927429;29;20258;-67
2023/05/26 06:26:21;;;;;;;20.63;6.50;;;17.20;99.90;;;;;;4924261;29;20813;-69
2023/05/26 06:28:48;;;;;;;23.48;6.43;;;19.20;99.90;;;;;;4910181;29;20355;-67
2023/05/26 06:31:15;;;;;;;15.50;4.97;;;19.10;99.90;;;;;;4906142;29;20202;-69
2023/05/26 06:33:48;;;;;;;23.67;6.07;;;18.30;99.90;;;;;;4910501;29;20211;-67
2023/05/26 06:36:15;;;;;;;24.13;6.68;;;17.90;99.90;;;;;;4912489;29;20223;-67
2023/05/26 06:38:42;;;;;;;19.98;6.10;;;18.10;99.90;;;;;;4911490;29;20219;-67
2023/05/26 06:41:09;;;;;;;27.05;6.45;;;17.10;99.90;;;;;;4926318;29;20311;-67
2023/05/26 06:43:37;;;;;;;20.88;6.63;;;16.80;99.90;;;;;;4912291;29;20203;-67
2023/05/26 06:46:06;;;;;;;20.15;5.50;;;17.10;99.90;;;;;;4926627;29;20199;-67
2023/05/26 06:48:35;;;;;;;21.02;6.00;;;18.60;99.90;;;;;;4911419;29;20600;-68
2023/05/26 06:51:13;;;;;;;17.42;5.60;;;18.20;99.90;;;;;;4912168;29;20294;-67
2023/05/26 06:53:40;;;;;;;19.13;5.18;;;18.20;99.90;;;;;;4910939;29;20212;-68
2023/05/26 06:56:07;;;;;;;18.33;5.38;;;19.70;99.90;;;;;;4927081;29;20206;-67
2023/05/26 06:58:36;;;;;;;24.15;6.20;;;19.50;99.90;;;;;;4928845;29;20196;-67
2023/05/26 07:01:03;;;;;;;18.17;5.78;;;18.70;99.90;;;;;;4927817;29;20516;-67
2023/05/26 07:03:33;;;;;;;22.02;6.38;;;19.30;99.90;;;;;;4932388;29;20648;-67
2023/05/26 07:06:02;;;;;;;18.17;5.97;;;20.10;99.90;;;;;;4932470;29;20882;-67
2023/05/26 07:08:34;;;;;;;20.10;5.97;;;20.80;99.90;;;;;;4929241;29;20317;-67
2023/05/26 07:11:25;;;;;;;22.15;6.32;;;20.40;99.90;;;;;;4929900;29;20200;-66
2023/05/26 07:13:58;;;;;;;21.80;6.32;;;19.10;99.90;;;;;;4927005;29;20224;-67
2023/05/26 07:16:25;;;;;;;19.05;5.93;;;20.00;99.90;;;;;;4926575;29;20223;-67
2023/05/26 07:18:52;;;;;;;22.33;5.57;;;21.60;99.90;;;;;;4931070;29;20195;-67
2023/05/26 07:21:21;;;;;;;15.75;5.68;;;23.50;99.90;;;;;;4928448;29;20243;-67
2023/05/26 07:23:50;;;;;;;13.95;5.10;;;23.60;99.90;;;;;;4930256;29;20227;-67
2023/05/26 07:26:18;;;;;;;18.02;5.50;;;25.20;99.90;;;;;;4914501;29;20208;-67
2023/05/26 07:28:48;;;;;;;19.60;5.65;;;25.80;99.90;;;;;;4913674;29;20204;-67
2023/05/26 07:31:15;;;;;;;16.27;5.68;;;25.50;99.90;;;;;;4927665;29;20666;-66
2023/05/26 07:33:42;;;;;;;19.17;6.63;;;26.50;99.90;;;;;;4911137;29;20212;-67
2023/05/26 07:36:09;;;;;;;17.55;6.00;;;27.40;99.90;;;;;;4929754;29;20195;-69
2023/05/26 07:38:37;;;;;;;21.90;6.22;;;26.60;99.90;;;;;;4912131;29;20191;-68
2023/05/26 07:41:04;;;;;;;16.60;6.03;;;25.10;99.90;;;;;;4931523;29;20247;-68
2023/05/26 07:43:31;;;;;;;18.27;5.53;;;24.20;99.90;;;;;;4932327;29;20673;-68
2023/05/26 07:45:59;;;;;;;18.73;6.20;;;26.00;99.90;;;;;;4927756;29;20690;-69
2023/05/26 07:48:26;;;;;;;16.30;6.00;;;27.80;99.90;;;;;;4912873;29;20206;-67
2023/05/26 07:50:53;;;;;;;23.83;7.03;;;27.60;99.90;;;;;;4926445;29;20776;-70
2023/05/26 07:53:20;;;;;;;21.58;6.45;;;25.30;99.90;;;;;;4931237;29;20211;-69
2023/05/26 07:55:47;;;;;;;14.93;6.13;;;26.20;99.90;;;;;;4929914;29;20191;-67
2023/05/26 07:58:14;;;;;;;22.15;6.35;;;25.10;99.90;;;;;;4900154;29;20196;-61
2023/05/26 08:00:41;;;;;;;23.58;6.07;;;24.30;99.90;;;;;;4927758;29;20212;-60
2023/05/26 08:03:09;;;;;;;22.23;5.78;;;23.10;99.90;;;;;;4929114;29;20283;-60
2023/05/26 08:05:36;;;;;;;18.52;6.28;;;22.50;99.90;;;;;;4911920;29;20200;-61
2023/05/26 08:08:04;;;;;;;21.73;6.05;;;21.90;99.90;;;;;;4927831;29;20195;-60
2023/05/26 08:10:32;;;;;;;14.55;5.20;;;23.80;99.90;;;;;;4929534;29;20208;-61
2023/05/26 08:12:59;;;;;;;17.38;5.97;;;23.70;99.90;;;;;;4930297;29;20891;-60
2023/05/26 08:15:26;;;;;;;18.65;5.05;;;23.20;99.90;;;;;;4929260;29;20192;-58
2023/05/26 08:17:53;;;;;;;19.65;6.28;;;25.10;99.90;;;;;;4924062;29;20820;-60
2023/05/26 08:20:20;;;;;;;22.33;6.68;;;26.20;99.90;;;;;;4925771;29;20192;-60
2023/05/26 08:22:47;;;;;;;14.23;5.45;;;26.60;99.90;;;;;;4924515;29;20200;-58
2023/05/26 08:25:14;;;;;;;17.23;5.85;;;26.90;99.90;;;;;;4920589;29;20199;-61
2023/05/26 08:27:42;;;;;;;21.25;5.85;;;26.60;99.90;;;;;;4925655;29;20198;-59
2023/05/26 08:30:09;;;;;;;17.15;6.60;;;25.20;99.90;;;;;;4929579;29;20223;-61
2023/05/26 08:32:36;;;;;;;18.27;6.03;;;24.80;99.90;;;;;;4928907;29;20694;-58
2023/05/26 08:35:04;;;;;;;22.42;6.47;;;24.60;99.90;;;;;;4929673;29;20276;-59
2023/05/26 08:37:31;;;;;;;17.75;6.10;;;24.80;99.90;;;;;;4911025;29;20259;-60
2023/05/26 08:39:58;;;;;;;17.13;5.72;;;25.70;99.90;;;;;;4928667;29;20199;-60
2023/05/26 08:42:30;;;;;;;16.88;5.28;;;27.40;99.90;;;;;;4928078;29;20210;-59
2023/05/26 08:45:02;;;;;;;17.80;5.72;;;28.50;99.90;;;;;;4927773;29;20222;-59
2023/05/26 08:47:35;;;;;;;19.80;6.03;;;28.00;99.90;;;;;;4931154;29;20207;-59
2023/05/26 08:50:08;;;;;;;22.40;6.68;;;24.60;99.90;;;;;;4926859;29;20234;-59
2023/05/26 08:52:37;;;;;;;15.90;5.57;;;24.90;99.90;;;;;;4926310;29;20203;-59
2023/05/26 08:55:08;;;;;;;17.50;5.65;;;25.30;99.90;;;;;;4929677;29;20294;-57
2023/05/26 08:57:37;;;;;;;17.77;5.32;;;26.50;99.90;;;;;;4928506;29;20351;-59
2023/05/26 09:00:07;;;;;;;16.38;5.65;;;28.00;99.90;;;;;;4927942;29;20208;-59
2023/05/26 09:02:34;;;;;;;17.60;6.00;;;29.80;99.90;;;;;;4910905;29;20204;-60
2023/05/26 09:05:01;;;;;;;17.17;6.20;;;29.40;99.90;;;;;;4914226;29;20239;-58
2023/05/26 09:07:28;;;;;;;17.02;5.88;;;30.10;99.90;;;;;;4927223;29;20200;-61
2023/05/26 09:10:20;;;;;;;15.70;5.88;;;29.80;99.90;;;;;;4925555;29;20192;-60
2023/05/26 09:12:48;;;;;;;16.75;6.30;;;28.50;99.90;;;;;;4923897;29;20233;-59
2023/05/26 09:15:21;;;;;;;15.95;5.60;;;26.60;99.90;;;;;;4927084;29;20203;-60
2023/05/26 09:17:48;;;;;;;16.88;6.18;;;27.40;99.90;;;;;;4924644;29;21154;-59
2023/05/26 09:20:16;;;;;;;17.35;5.57;;;27.60;99.90;;;;;;4919021;29;20196;-58
2023/05/26 09:22:45;;;;;;;15.07;5.90;;;28.60;99.90;;;;;;4921634;29;20607;-60
2023/05/26 09:25:16;;;;;;;15.88;5.78;;;28.30;99.90;;;;;;4925064;29;20200;-58
2023/05/26 09:27:47;;;;;;;19.80;6.38;;;26.80;99.90;;;;;;4928854;29;20203;-58
2023/05/26 09:30:14;;;;;;;17.60;5.80;;;25.20;99.90;;;;;;4924811;29;20203;-59
2023/05/26 09:32:41;;;;;;;20.35;6.30;;;25.40;99.90;;;;;;4927821;29;20217;-59
2023/05/26 09:35:08;;;;;;;19.25;6.13;;;26.60;99.90;;;;;;4910312;29;20227;-60
2023/05/26 09:37:35;;;;;;;18.08;5.95;;;27.40;99.90;;;;;;4928844;29;20282;-58
2023/05/26 09:40:10;;;;;;;16.90;6.07;;;28.30;99.90;;;;;;4910597;29;20294;-60
2023/05/26 09:42:38;;;;;;;18.45;6.40;;;28.50;99.90;;;;;;4927857;29;20563;-59
2023/05/26 09:45:05;;;;;;;13.68;5.43;;;27.40;99.90;;;;;;4925614;29;20259;-59
2023/05/26 09:47:35;;;;;;;17.52;6.00;;;27.40;99.90;;;;;;4928764;29;20200;-59
2023/05/26 09:50:06;;;;;;;17.45;5.85;;;27.30;99.90;;;;;;4909983;29;20218;-61
2023/05/26 09:52:34;;;;;;;17.73;5.90;;;27.60;99.90;;;;;;4926176;29;20195;-60
2023/05/26 09:55:01;;;;;;;18.33;6.22;;;28.60;99.90;;;;;;4913217;29;20227;-60
2023/05/26 09:57:29;;;;;;;17.23;6.68;;;29.00;99.90;;;;;;4925950;29;20201;-60
2023/05/26 09:59:56;;;;;;;19.17;6.57;;;26.90;99.90;;;;;;4910684;29;20575;-60
2023/05/26 10:02:25;;;;;;;22.70;7.18;;;26.40;99.90;;;;;;4912109;29;20199;-60
2023/05/26 10:04:53;;;;;;;24.30;6.85;;;25.90;99.90;;;;;;4926414;29;20239;-59
2023/05/26 10:07:21;;;;;;;16.30;5.85;;;25.50;99.90;;;;;;4929201;29;20938;-59
2023/05/26 10:09:55;;;;;;;15.23;5.90;;;26.30;99.90;;;;;;4925750;29;20200;-61
2023/05/26 10:12:27;;;;;;;18.10;6.57;;;27.70;99.90;;;;;;4915598;29;20709;-62
2023/05/26 10:14:55;;;;;;;19.80;6.95;;;28.00;99.90;;;;;;4921245;29;20271;-59
2023/05/26 10:17:23;;;;;;;21.63;6.70;;;25.50;99.90;;;;;;4927723;29;20201;-59
2023/05/26 10:19:55;;;;;;;18.55;6.55;;;25.40;99.90;;;;;;4924547;29;20652;-60
2023/05/26 10:22:35;;;;;;;18.25;6.38;;;25.90;99.90;;;;;;4927899;29;20200;-59
2023/05/26 10:25:31;;;;;;;15.95;6.05;;;25.90;99.90;;;;;;4928828;29;20257;-59
2023/05/26 10:28:31;;;;;;;14.80;5.55;;;26.30;99.90;;;;;;4927517;29;20769;-60
2023/05/26 10:31:03;;;;;;;21.67;6.55;;;28.50;99.90;;;;;;4918198;29;20698;-60
2023/05/26 10:33:37;;;;;;;16.70;6.15;;;26.40;99.90;;;;;;4927792;29;20215;-58
2023/05/26 10:36:13;;;;;;;19.17;6.43;;;27.00;99.90;;;;;;4925497;29;20262;-59
2023/05/26 10:38:45;;;;;;;16.27;6.13;;;24.90;99.90;;;;;;4926048;29;20943;-61
2023/05/26 10:41:28;;;;;;;17.10;5.78;;;26.30;99.90;;;;;;4924915;29;20225;-60
2023/05/26 10:43:55;;;;;;;19.25;6.68;;;27.10;99.90;;;;;;4910526;29;20247;-58
2023/05/26 10:46:22;;;;;;;22.10;6.85;;;27.60;99.90;;;;;;4924951;29;20294;-66
2023/05/26 10:48:57;;;;;;;17.35;6.13;;;27.50;99.90;;;;;;4926752;29;20207;-67
2023/05/26 10:51:33;;;;;;;21.55;7.28;;;24.20;99.90;;;;;;4927443;29;20302;-68
2023/05/26 10:54:18;;;;;;;20.55;7.00;;;23.80;99.90;;;;;;4923371;29;20745;-67
2023/05/26 10:56:49;;;;;;;21.77;7.35;;;24.10;99.90;;;;;;4927164;29;20183;-66
2023/05/26 10:59:30;;;;;;;17.42;6.07;;;24.00;99.90;;;;;;4923472;29;20596;-68
2023/05/26 11:02:03;;;;;;;19.17;6.35;;;25.10;99.90;;;;;;4925869;29;20567;-69
2023/05/26 11:04:41;;;;;;;18.55;6.30;;;25.40;99.90;;;;;;4912373;29;20692;-68
2023/05/26 11:07:29;;;;;;;18.73;6.57;;;24.00;99.90;;;;;;4928367;29;20191;-68
2023/05/26 11:09:56;;;;;;;17.13;6.13;;;24.20;99.90;;;;;;4910632;29;20199;-68
2023/05/26 11:12:30;;;;;;;15.40;6.18;;;25.80;99.90;;;;;;4924839;29;20192;-68
2023/05/26 11:14:57;;;;;;;14.60;5.05;;;27.30;99.90;;;;;;4926956;29;20736;-70
2023/05/26 11:17:28;;;;;;;19.13;6.55;;;27.80;99.90;;;;;;4925283;29;20662;-67
2023/05/26 11:19:58;;;;;;;17.17;6.05;;;26.40;99.90;;;;;;4909441;29;20681;-67
2023/05/26 11:22:26;;;;;;;15.82;5.68;;;26.10;99.90;;;;;;4925771;29;20206;-70
2023/05/26 11:24:54;;;;;;;18.95;5.82;;;26.00;99.90;;;;;;4928640;29;20291;-67
2023/05/26 11:27:24;;;;;;;20.48;6.47;;;26.70;99.90;;;;;;4926441;29;20203;-67
2023/05/26 11:30:00;;;;;;;18.25;6.30;;;26.40;99.90;;;;;;4927127;29;20727;-68
2023/05/26 11:32:27;;;;;;;20.15;6.40;;;25.80;99.90;;;;;;4914542;29;20205;-67
2023/05/26 11:34:56;;;;;;;17.88;6.13;;;26.80;99.90;;;;;;4927869;29;21603;-68
2023/05/26 11:37:26;;;;;;;17.58;6.20;;;26.40;99.90;;;;;;4927660;29;20200;-68
2023/05/26 11:39:54;;;;;;;21.98;6.15;;;25.00;99.90;;;;;;4925881;29;20255;-68
2023/05/26 11:42:21;;;;;;;15.60;5.57;;;24.70;99.90;;;;;;4924546;29;20196;-68
2023/05/26 11:44:48;;;;;;;19.95;6.22;;;24.70;99.90;;;;;;4926165;29;20211;-67
2023/05/26 11:47:20;;;;;;;15.63;5.25;;;23.70;99.90;;;;;;4928955;29;20682;-68
2023/05/26 11:49:52;;;;;;;19.13;6.13;;;23.70;99.90;;;;;;4930252;29;20203;-69
2023/05/26 11:52:22;;;;;;;20.00;6.00;;;22.80;99.90;;;;;;4918290;29;20272;-67
2023/05/26 11:54:50;;;;;;;16.30;5.50;;;22.80;99.90;;;;;;4931124;29;20246;-68
2023/05/26 11:57:31;;;;;;;13.27;5.47;;;23.50;99.90;;;;;;4927191;29;20604;-69
2023/05/26 11:59:58;;;;;;;13.60;4.90;;;23.70;99.90;;;;;;4927335;29;20599;-69
2023/05/26 12:02:25;;;;;;;15.00;4.95;;;24.10;99.90;;;;;;4927854;29;20644;-70
2023/05/26 12:04:52;;;;;;;14.43;4.75;;;24.20;99.90;;;;;;4912368;29;20302;-68
2023/05/26 12:07:30;;;;;;;14.75;5.07;;;24.00;99.90;;;;;;4929036;29;20199;-68
2023/05/26 12:10:08;;;;;;;15.38;5.47;;;23.00;99.90;;;;;;4926970;29;20679;-66
2023/05/26 12:12:51;;;;;;;10.90;4.20;;;22.00;99.90;;;;;;4911858;29;20206;-68
2023/05/26 12:15:20;;;;;;;16.90;5.30;;;22.90;99.90;;;;;;4930137;29;20216;-68
2023/05/26 12:17:49;;;;;;;11.10;4.00;;;22.90;99.90;;;;;;4926103;29;20195;-68
2023/05/26 12:20:18;;;;;;;11.43;4.47;;;23.00;99.90;;;;;;4929734;29;20204;-70
2023/05/26 12:23:08;;;;;;;17.08;4.88;;;22.60;99.90;;;;;;4929696;29;20603;-68
2023/05/26 12:25:35;;;;;;;14.65;5.03;;;22.50;99.90;;;;;;4927512;29;20195;-67
2023/05/26 12:28:02;;;;;;;14.77;5.05;;;22.10;99.90;;;;;;4928420;29;20215;-68
2023/05/26 12:30:33;;;;;;;14.48;5.03;;;22.30;99.90;;;;;;4927661;29;20219;-63
2023/05/26 12:33:15;;;;;;;16.25;4.53;;;22.00;99.90;;;;;;4926954;29;20533;-59
2023/05/26 12:35:41;;;;;;;13.65;4.20;;;22.50;99.90;;;;;;4929659;29;20220;-63
2023/05/26 12:38:12;;;;;;;11.35;4.10;;;22.60;99.90;;;;;;4928953;29;20200;-59
2023/05/26 12:40:39;;;;;;;11.02;4.70;;;22.40;99.90;;;;;;4928924;29;20198;-58
2023/05/26 12:43:07;;;;;;;13.32;4.32;;;21.10;99.90;;;;;;4912367;29;20299;-59
2023/05/26 12:45:34;;;;;;;16.77;4.70;;;21.10;99.90;;;;;;4910579;29;20207;-62
2023/05/26 12:48:02;;;;;;;17.90;4.43;;;20.50;99.90;;;;;;4912563;29;20275;-67
2023/05/26 12:50:29;;;;;;;14.50;4.85;;;20.70;99.90;;;;;;4927280;29;20275;-58